SYCO2: Spavinaw Creek Nr Sycamore,Ok

Data processed at Thu May 23 2019 23:50


All information presented herein is the property of the government of the United States of America and may be revised or deleted at any time without prior notice.
Dissemination of this information without the expressed written consent of the Public Affairs Office, Tulsa District U.S. Army Corps of Engineers is strictly prohibited.
These data are gathered electronically and, as presented, have not undergone any form of quality control. These data are not guaranteed to be valid or correct.
Go to home page.
Go to station list.
Go to home page.

Upstream stations:

Downstream station:
Previous Day
Next Day
Current Day
    
SHEF ID:       SYCO2     Spavinaw Creek near Sycamore, OK
STATION TYPE:  
Regulating: Stage =    20.00, Flow =    30765

               PRECIP     STAGE  STAGE(2)  RIV-FLOW  BAT-LOAD
                   in        ft        ft       cfs      volt
              Ccp-Rev   Ccp-Rev   Ccp-Rev   Ccp-Rev   Ccp-Rev
(US/Central)
05/23 00:00      0.00      6.52      6.98       696     12.33
05/23 01:00      0.00      6.49      6.97       680     12.25
05/23 02:00      0.00      6.47      6.97       669     12.25
05/23 03:00      0.00      6.44      6.95       654     12.25
05/23 04:00      0.00      6.41      6.94       639     12.25
05/23 05:00      0.00      6.39      6.93       629     12.17
05/23 06:00      0.00      6.36      6.92       614     12.41
05/23 07:00      0.00      6.35      6.91       609     12.41
05/23 08:00      0.00      6.33      6.86       599     12.33
05/23 09:00      0.00      6.31      6.80       589     12.57
05/23 10:00      0.00      6.30      6.79       585     12.97
05/23 11:00      0.00      6.27      6.78       570     12.97
05/23 12:00      0.00      6.27      6.78       570     12.97
05/23 13:00      0.00      6.23      6.77       551     12.89
05/23 14:00      0.00      6.23      6.76       551     13.05
05/23 15:00      0.00      6.22      6.75       547     12.97
05/23 16:00      0.00      6.20      6.74       538     12.81
05/23 17:00      0.00      6.18      6.73       529     12.81
05/23 18:00      0.00      6.17      6.73       524     12.73
05/23 19:00      0.00      6.15      6.73       515     12.65
05/23 20:00      0.00      6.13      6.72       506     12.65
05/23 21:00      0.00      6.12      6.72       502     12.41
05/23 22:00      0.00      6.12      6.71       502     12.49
05/23 23:00      0.00      6.09      6.70       489     12.49